Time,TemperatureF,DewpointF,PressureIn,WindDirection,WindDirectionDegrees,WindSpeedMPH,WindSpeedGustMPH,Humidity,HourlyPrecipIn,Conditions,Clouds,dailyrainin,SoftwareType,DateUTC
2013-03-02 00:00:00,29.2,15.5,30.30,WNW,299,5.0,18.0,56,0.00,,---,0.00,VWS V14.01,2013-03-02 07:00:00,
2013-03-02 00:01:00,29.2,15.5,30.30,WNW,299,5.0,18.0,56,0.00,,---,0.00,VWS V14.01,2013-03-02 07:01:00,
2013-03-02 00:10:00,28.6,15.3,30.31,WNW,286,0.0,19.0,57,0.00,,---,0.00,VWS V14.01,2013-03-02 07:10:00,
2013-03-02 00:11:00,28.6,15.3,30.31,WNW,286,0.0,19.0,57,0.00,,---,0.00,VWS V14.01,2013-03-02 07:11:00,
2013-03-02 00:20:00,30.0,17.0,30.28,NW,308,6.0,17.0,58,0.00,,---,0.00,VWS V14.01,2013-03-02 07:20:00,
2013-03-02 00:21:00,30.0,17.0,30.28,NW,308,6.0,17.0,58,0.00,,---,0.00,VWS V14.01,2013-03-02 07:21:00,
2013-03-02 00:30:00,30.0,17.0,30.28,NNW,331,9.0,15.0,58,0.00,,---,0.00,VWS V14.01,2013-03-02 07:30:00,
2013-03-02 00:31:00,30.0,17.0,30.28,NNW,331,9.0,15.0,58,0.00,,---,0.00,VWS V14.01,2013-03-02 07:31:00,
2013-03-02 00:40:00,26.9,14.1,30.32,WNW,283,0.0,11.0,58,0.00,,---,0.00,VWS V14.01,2013-03-02 07:40:00,
2013-03-02 00:41:00,26.9,14.1,30.32,WNW,283,0.0,11.0,58,0.00,,---,0.00,VWS V14.01,2013-03-02 07:41:00,
2013-03-02 00:50:00,28.9,15.2,30.30,WNW,285,4.0,11.0,56,0.00,,---,0.00,VWS V14.01,2013-03-02 07:50:00,
2013-03-02 00:51:00,28.9,15.2,30.30,WNW,285,4.0,11.0,56,0.00,,---,0.00,VWS V14.01,2013-03-02 07:51:00,
2013-03-02 01:00:00,29.8,16.8,30.27,WNW,302,7.0,22.0,58,0.00,,---,0.00,VWS V14.01,2013-03-02 08:00:00,
2013-03-02 01:01:00,29.8,16.8,30.27,WNW,302,7.0,22.0,58,0.00,,---,0.00,VWS V14.01,2013-03-02 08:01:00,
2013-03-02 01:10:00,29.8,16.0,30.28,West,277,9.0,17.0,56,0.00,,---,0.00,VWS V14.01,2013-03-02 08:10:00,
2013-03-02 01:11:00,29.8,16.0,30.28,West,277,9.0,17.0,56,0.00,,---,0.00,VWS V14.01,2013-03-02 08:11:00,
2013-03-02 01:20:00,31.8,17.5,30.27,West,281,7.0,30.0,55,0.00,,---,0.00,VWS V14.01,2013-03-02 08:20:00,
2013-03-02 01:21:00,31.8,17.5,30.27,West,281,7.0,30.0,55,0.00,,---,0.00,VWS V14.01,2013-03-02 08:21:00,
2013-03-02 01:30:00,32.2,17.4,30.27,NW,310,16.0,28.0,54,0.00,,---,0.00,VWS V14.01,2013-03-02 08:30:00,
2013-03-02 01:31:00,32.2,17.4,30.27,NW,310,16.0,28.0,54,0.00,,---,0.00,VWS V14.01,2013-03-02 08:31:00,
2013-03-02 01:40:00,32.1,17.3,30.26,West,273,8.0,26.0,54,0.00,,---,0.00,VWS V14.01,2013-03-02 08:40:00,
2013-03-02 01:41:00,32.1,17.3,30.26,West,273,8.0,26.0,54,0.00,,---,0.00,VWS V14.01,2013-03-02 08:41:00,
2013-03-02 01:50:00,31.0,17.6,30.27,WNW,301,11.0,19.0,57,0.00,,---,0.00,VWS V14.01,2013-03-02 08:50:00,
2013-03-02 02:00:00,31.2,17.8,30.27,NW,310,14.0,30.0,57,0.00,,---,0.00,VWS V14.01,2013-03-02 09:00:00,
2013-03-02 02:01:00,31.2,17.8,30.27,NW,310,14.0,30.0,57,0.00,,---,0.00,VWS V14.01,2013-03-02 09:01:00,
2013-03-02 02:10:00,30.7,16.9,30.26,NW,310,15.0,22.0,56,0.00,,---,0.00,VWS V14.01,2013-03-02 09:10:00,
2013-03-02 02:11:00,30.7,16.9,30.26,NW,310,15.0,22.0,56,0.00,,---,0.00,VWS V14.01,2013-03-02 09:11:00,
2013-03-02 02:20:00,30.8,17.0,30.26,NW,324,11.0,15.0,56,0.00,,---,0.00,VWS V14.01,2013-03-02 09:20:00,
2013-03-02 02:21:00,30.8,17.0,30.26,NW,324,11.0,15.0,56,0.00,,---,0.00,VWS V14.01,2013-03-02 09:21:00,
2013-03-02 02:30:00,30.9,16.6,30.27,NW,318,7.0,14.0,55,0.00,,---,0.00,VWS V14.01,2013-03-02 09:30:00,
2013-03-02 02:31:00,30.9,16.6,30.27,NW,318,7.0,14.0,55,0.00,,---,0.00,VWS V14.01,2013-03-02 09:31:00,
2013-03-02 02:40:00,30.9,17.5,30.27,NW,313,15.0,19.0,57,0.00,,---,0.00,VWS V14.01,2013-03-02 09:40:00,
2013-03-02 02:50:00,31.0,17.2,30.26,WNW,296,5.0,15.0,56,0.00,,---,0.00,VWS V14.01,2013-03-02 09:50:00,
2013-03-02 03:00:00,30.9,17.5,30.26,NW,318,12.0,17.0,57,0.00,,---,0.00,VWS V14.01,2013-03-02 10:00:00,
2013-03-02 03:01:00,30.9,17.5,30.26,NW,318,12.0,17.0,57,0.00,,---,0.00,VWS V14.01,2013-03-02 10:01:00,
2013-03-02 03:10:00,31.4,17.1,30.27,NW,317,11.0,20.0,55,0.00,,---,0.00,VWS V14.01,2013-03-02 10:10:00,
2013-03-02 03:11:00,31.4,17.1,30.27,NW,317,11.0,20.0,55,0.00,,---,0.00,VWS V14.01,2013-03-02 10:11:00,
2013-03-02 03:20:00,31.1,17.7,30.28,NW,320,12.0,18.0,57,0.00,,---,0.00,VWS V14.01,2013-03-02 10:20:00,
2013-03-02 03:21:00,31.1,17.7,30.28,NW,320,12.0,18.0,57,0.00,,---,0.00,VWS V14.01,2013-03-02 10:21:00,
2013-03-02 03:30:00,30.5,17.1,30.27,NW,316,9.0,17.0,57,0.00,,---,0.00,VWS V14.01,2013-03-02 10:30:00,
2013-03-02 03:31:00,30.5,17.1,30.27,NW,316,9.0,17.0,57,0.00,,---,0.00,VWS V14.01,2013-03-02 10:31:00,
2013-03-02 03:40:00,28.8,17.1,30.29,NNW,336,9.0,17.0,61,0.00,,---,0.00,VWS V14.01,2013-03-02 10:40:00,
2013-03-02 03:41:00,28.8,17.1,30.29,NNW,336,9.0,17.0,61,0.00,,---,0.00,VWS V14.01,2013-03-02 10:41:00,
2013-03-02 03:50:00,28.7,16.2,30.28,NW,323,9.0,14.0,59,0.00,,---,0.00,VWS V14.01,2013-03-02 10:50:00,
2013-03-02 03:51:00,28.7,16.2,30.28,NW,323,9.0,14.0,59,0.00,,---,0.00,VWS V14.01,2013-03-02 10:51:00,
2013-03-02 04:00:00,30.0,16.6,30.27,NW,317,9.0,15.0,57,0.00,,---,0.00,VWS V14.01,2013-03-02 11:00:00,
2013-03-02 04:01:00,30.0,16.6,30.27,NW,317,9.0,15.0,57,0.00,,---,0.00,VWS V14.01,2013-03-02 11:01:00,
2013-03-02 04:10:00,26.8,16.3,30.31,NW,315,11.0,16.0,64,0.00,,---,0.00,VWS V14.01,2013-03-02 11:10:00,
2013-03-02 04:11:00,26.8,16.3,30.31,NW,315,11.0,16.0,64,0.00,,---,0.00,VWS V14.01,2013-03-02 11:11:00,
2013-03-02 04:20:00,28.4,16.3,30.31,NW,311,9.0,21.0,60,0.00,,---,0.00,VWS V14.01,2013-03-02 11:20:00,
2013-03-02 04:21:00,28.4,16.3,30.31,NW,311,9.0,21.0,60,0.00,,---,0.00,VWS V14.01,2013-03-02 11:21:00,
2013-03-02 04:30:00,28.8,16.3,30.29,NW,317,8.0,14.0,59,0.00,,---,0.00,VWS V14.01,2013-03-02 11:30:00,
2013-03-02 04:31:00,28.8,16.3,30.29,NW,317,8.0,14.0,59,0.00,,---,0.00,VWS V14.01,2013-03-02 11:31:00,
2013-03-02 04:40:00,26.3,16.1,30.33,NW,318,4.0,17.0,65,0.00,,---,0.00,VWS V14.01,2013-03-02 11:40:00,
2013-03-02 04:41:00,26.3,16.1,30.33,NW,318,4.0,17.0,65,0.00,,---,0.00,VWS V14.01,2013-03-02 11:41:00,
2013-03-02 04:50:00,27.2,16.6,30.31,NNW,341,9.0,14.0,64,0.00,,---,0.00,VWS V14.01,2013-03-02 11:50:00,
2013-03-02 04:51:00,27.2,16.6,30.31,NNW,341,9.0,14.0,64,0.00,,---,0.00,VWS V14.01,2013-03-02 11:51:00,
2013-03-02 05:00:00,29.9,17.3,30.30,NW,308,16.0,19.0,59,0.00,,---,0.00,VWS V14.01,2013-03-02 12:00:00,
2013-03-02 05:01:00,29.9,17.3,30.30,NW,308,16.0,19.0,59,0.00,,---,0.00,VWS V14.01,2013-03-02 12:01:00,
2013-03-02 05:10:00,26.3,15.8,30.34,NNW,332,10.0,16.0,64,0.00,,---,0.00,VWS V14.01,2013-03-02 12:10:00,
2013-03-02 05:11:00,26.3,15.8,30.34,NNW,332,10.0,16.0,64,0.00,,---,0.00,VWS V14.01,2013-03-02 12:11:00,
2013-03-02 05:20:00,28.1,16.4,30.32,NNW,331,10.0,21.0,61,0.00,,---,0.00,VWS V14.01,2013-03-02 12:20:00,
2013-03-02 05:21:00,28.1,16.4,30.32,NNW,331,10.0,21.0,61,0.00,,---,0.00,VWS V14.01,2013-03-02 12:21:00,
2013-03-02 05:30:00,25.1,15.7,30.36,NNW,348,10.0,13.0,67,0.00,,---,0.00,VWS V14.01,2013-03-02 12:30:00,
2013-03-02 05:31:00,25.1,15.7,30.36,NNW,348,10.0,13.0,67,0.00,,---,0.00,VWS V14.01,2013-03-02 12:31:00,
2013-03-02 05:40:00,25.0,15.3,30.36,NW,317,16.0,16.0,66,0.00,,---,0.00,VWS V14.01,2013-03-02 12:40:00,
2013-03-02 05:41:00,25.0,15.3,30.36,NW,317,16.0,16.0,66,0.00,,---,0.00,VWS V14.01,2013-03-02 12:41:00,
2013-03-02 05:50:00,25.2,16.1,30.36,NNW,342,14.0,16.0,68,0.00,,---,0.00,VWS V14.01,2013-03-02 12:50:00,
2013-03-02 05:51:00,25.2,16.1,30.36,NNW,342,14.0,16.0,68,0.00,,---,0.00,VWS V14.01,2013-03-02 12:51:00,
2013-03-02 06:00:00,26.4,16.9,30.36,North,355,18.0,24.0,67,0.00,,---,0.00,VWS V14.01,2013-03-02 13:00:00,
2013-03-02 06:01:00,26.4,16.9,30.36,North,355,18.0,24.0,67,0.00,,---,0.00,VWS V14.01,2013-03-02 13:01:00,
2013-03-02 06:10:00,26.5,16.7,30.36,NNW,334,11.0,20.0,66,0.00,,---,0.00,VWS V14.01,2013-03-02 13:10:00,
2013-03-02 06:11:00,26.5,16.7,30.36,NNW,334,11.0,20.0,66,0.00,,---,0.00,VWS V14.01,2013-03-02 13:11:00,
2013-03-02 06:20:00,26.0,16.2,30.36,NNW,340,12.0,18.0,66,0.00,,---,0.00,VWS V14.01,2013-03-02 13:20:00,
2013-03-02 06:21:00,26.0,16.2,30.36,NNW,340,12.0,18.0,66,0.00,,---,0.00,VWS V14.01,2013-03-02 13:21:00,
2013-03-02 06:30:00,26.3,16.9,30.36,NNW,342,12.0,20.0,67,0.00,,---,0.00,VWS V14.01,2013-03-02 13:30:00,
2013-03-02 06:31:00,26.3,16.9,30.36,NNW,342,12.0,20.0,67,0.00,,---,0.00,VWS V14.01,2013-03-02 13:31:00,
2013-03-02 06:40:00,26.8,17.0,30.36,NNW,347,13.0,21.0,66,0.00,,---,0.00,VWS V14.01,2013-03-02 13:40:00,
2013-03-02 06:41:00,26.8,17.0,30.36,NNW,347,13.0,21.0,66,0.00,,---,0.00,VWS V14.01,2013-03-02 13:41:00,
2013-03-02 06:50:00,26.5,17.0,30.36,NNW,344,16.0,22.0,67,0.00,,---,0.00,VWS V14.01,2013-03-02 13:50:00,
2013-03-02 06:51:00,26.5,17.0,30.36,NNW,344,16.0,22.0,67,0.00,,---,0.00,VWS V14.01,2013-03-02 13:51:00,
2013-03-02 07:00:00,27.1,17.3,30.36,NNW,346,13.0,21.0,66,0.00,,---,0.00,VWS V14.01,2013-03-02 14:00:00,
2013-03-02 07:01:00,27.1,17.3,30.36,NNW,346,13.0,21.0,66,0.00,,---,0.00,VWS V14.01,2013-03-02 14:01:00,
2013-03-02 07:10:00,27.9,17.3,30.36,North,350,11.0,19.0,64,0.00,,---,0.00,VWS V14.01,2013-03-02 14:10:00,
2013-03-02 07:11:00,27.9,17.3,30.36,North,350,11.0,19.0,64,0.00,,---,0.00,VWS V14.01,2013-03-02 14:11:00,
2013-03-02 07:20:00,28.7,17.7,30.35,North,5,15.0,21.0,63,0.00,,---,0.00,VWS V14.01,2013-03-02 14:20:00,
2013-03-02 07:21:00,28.7,17.7,30.35,North,5,15.0,21.0,63,0.00,,---,0.00,VWS V14.01,2013-03-02 14:21:00,
2013-03-02 07:30:00,28.8,17.8,30.35,North,349,12.0,20.0,63,0.00,,---,0.00,VWS V14.01,2013-03-02 14:30:00,
2013-03-02 07:31:00,28.8,17.8,30.35,North,349,12.0,20.0,63,0.00,,---,0.00,VWS V14.01,2013-03-02 14:31:00,
2013-03-02 07:40:00,29.7,17.9,30.35,North,360,15.0,27.0,61,0.00,,---,0.00,VWS V14.01,2013-03-02 14:40:00,
2013-03-02 07:41:00,29.7,17.9,30.35,North,360,15.0,27.0,61,0.00,,---,0.00,VWS V14.01,2013-03-02 14:41:00,
2013-03-02 07:50:00,30.4,18.2,30.35,NNW,348,13.0,21.0,60,0.00,,---,0.00,VWS V14.01,2013-03-02 14:50:00,
2013-03-02 07:51:00,30.4,18.2,30.35,NNW,348,13.0,21.0,60,0.00,,---,0.00,VWS V14.01,2013-03-02 14:51:00,
2013-03-02 08:00:00,30.5,18.7,30.33,NNW,342,19.0,24.0,61,0.00,,---,0.00,VWS V14.01,2013-03-02 15:00:00,
2013-03-02 08:01:00,30.5,18.7,30.33,NNW,342,19.0,24.0,61,0.00,,---,0.00,VWS V14.01,2013-03-02 15:01:00,
2013-03-02 08:10:00,31.4,18.7,30.34,NNW,348,24.0,28.0,59,0.00,,---,0.00,VWS V14.01,2013-03-02 15:10:00,
2013-03-02 08:11:00,31.4,18.7,30.34,NNW,348,24.0,28.0,59,0.00,,---,0.00,VWS V14.01,2013-03-02 15:11:00,
2013-03-02 08:20:00,32.0,18.9,30.33,North,349,13.0,26.0,58,0.00,,---,0.00,VWS V14.01,2013-03-02 15:20:00,
2013-03-02 08:21:00,32.0,18.9,30.33,North,349,13.0,26.0,58,0.00,,---,0.00,VWS V14.01,2013-03-02 15:21:00,
2013-03-02 08:30:00,32.4,19.3,30.32,North,355,15.0,24.0,58,0.00,,---,0.00,VWS V14.01,2013-03-02 15:30:00,
2013-03-02 08:31:00,32.4,19.3,30.32,North,355,15.0,24.0,58,0.00,,---,0.00,VWS V14.01,2013-03-02 15:31:00,
2013-03-02 08:40:00,32.9,19.4,30.32,NNW,342,25.0,31.0,57,0.00,,---,0.00,VWS V14.01,2013-03-02 15:40:00,
2013-03-02 08:41:00,32.9,19.4,30.32,NNW,342,25.0,31.0,57,0.00,,---,0.00,VWS V14.01,2013-03-02 15:41:00,
2013-03-02 08:50:00,32.9,19.4,30.33,NNW,345,16.0,29.0,57,0.00,,---,0.00,VWS V14.01,2013-03-02 15:50:00,
2013-03-02 08:51:00,32.9,19.4,30.33,NNW,345,16.0,29.0,57,0.00,,---,0.00,VWS V14.01,2013-03-02 15:51:00,
2013-03-02 09:00:00,33.5,19.5,30.33,North,355,26.0,30.0,56,0.00,,---,0.00,VWS V14.01,2013-03-02 16:00:00,
2013-03-02 09:01:00,33.5,19.5,30.33,North,355,26.0,30.0,56,0.00,,---,0.00,VWS V14.01,2013-03-02 16:01:00,
2013-03-02 09:10:00,34.4,20.3,30.32,NNW,348,18.0,28.0,56,0.00,,---,0.00,VWS V14.01,2013-03-02 16:10:00,
2013-03-02 09:11:00,34.4,20.3,30.32,NNW,348,18.0,28.0,56,0.00,,---,0.00,VWS V14.01,2013-03-02 16:11:00,
2013-03-02 09:20:00,35.0,20.0,30.30,NNW,344,16.0,30.0,54,0.00,,---,0.00,VWS V14.01,2013-03-02 16:20:00,
2013-03-02 09:21:00,35.0,20.0,30.30,NNW,344,16.0,30.0,54,0.00,,---,0.00,VWS V14.01,2013-03-02 16:21:00,
2013-03-02 09:30:00,35.9,20.5,30.30,North,349,16.0,26.0,53,0.00,,---,0.00,VWS V14.01,2013-03-02 16:30:00,
2013-03-02 09:31:00,35.9,20.5,30.30,North,349,16.0,26.0,53,0.00,,---,0.00,VWS V14.01,2013-03-02 16:31:00,
2013-03-02 09:40:00,36.6,20.2,30.27,NNW,340,14.0,28.0,51,0.00,,---,0.00,VWS V14.01,2013-03-02 16:40:00,
2013-03-02 09:41:00,36.6,20.2,30.27,NNW,340,14.0,28.0,51,0.00,,---,0.00,VWS V14.01,2013-03-02 16:41:00,
2013-03-02 09:50:00,37.4,20.9,30.26,North,355,18.0,26.0,51,0.00,,---,0.00,VWS V14.01,2013-03-02 16:50:00,
2013-03-02 09:51:00,37.4,20.9,30.26,North,355,18.0,26.0,51,0.00,,---,0.00,VWS V14.01,2013-03-02 16:51:00,
2013-03-02 10:00:00,38.2,20.7,30.27,NNW,346,14.0,23.0,49,0.00,,---,0.00,VWS V14.01,2013-03-02 17:00:00,
2013-03-02 10:01:00,38.2,20.7,30.27,NNW,346,14.0,23.0,49,0.00,,---,0.00,VWS V14.01,2013-03-02 17:01:00,
2013-03-02 10:10:00,38.8,21.3,30.24,North,355,19.0,25.0,49,0.00,,---,0.00,VWS V14.01,2013-03-02 17:10:00,
2013-03-02 10:11:00,38.8,21.3,30.24,North,355,19.0,25.0,49,0.00,,---,0.00,VWS V14.01,2013-03-02 17:11:00,
2013-03-02 10:20:00,39.6,20.5,30.22,North,355,17.0,21.0,46,0.00,,---,0.00,VWS V14.01,2013-03-02 17:20:00,
2013-03-02 10:21:00,39.6,20.5,30.22,North,355,17.0,21.0,46,0.00,,---,0.00,VWS V14.01,2013-03-02 17:21:00,
2013-03-02 10:30:00,39.8,21.2,30.22,NNW,330,11.0,24.0,47,0.00,,---,0.00,VWS V14.01,2013-03-02 17:30:00,
2013-03-02 10:31:00,39.8,21.2,30.22,NNW,330,11.0,24.0,47,0.00,,---,0.00,VWS V14.01,2013-03-02 17:31:00,
2013-03-02 10:40:00,40.7,21.0,30.21,North,355,16.0,24.0,45,0.00,,---,0.00,VWS V14.01,2013-03-02 17:40:00,
2013-03-02 10:41:00,40.7,21.0,30.21,North,355,16.0,24.0,45,0.00,,---,0.00,VWS V14.01,2013-03-02 17:41:00,
2013-03-02 10:50:00,41.1,20.9,30.21,North,355,15.0,22.0,44,0.00,,---,0.00,VWS V14.01,2013-03-02 17:50:00,
2013-03-02 10:51:00,41.1,20.9,30.21,North,355,15.0,22.0,44,0.00,,---,0.00,VWS V14.01,2013-03-02 17:51:00,
2013-03-02 11:00:00,41.5,21.8,30.19,NNW,348,18.0,22.0,45,0.00,,---,0.00,VWS V14.01,2013-03-02 18:00:00,
2013-03-02 11:01:00,41.5,21.8,30.19,NNW,348,18.0,22.0,45,0.00,,---,0.00,VWS V14.01,2013-03-02 18:01:00,
2013-03-02 11:10:00,42.2,21.3,30.20,NNW,341,15.0,22.0,43,0.00,,---,0.00,VWS V14.01,2013-03-02 18:10:00,
2013-03-02 11:11:00,42.2,21.3,30.20,NNW,341,15.0,22.0,43,0.00,,---,0.00,VWS V14.01,2013-03-02 18:11:00,
2013-03-02 11:20:00,42.3,21.4,30.20,North,351,16.0,24.0,43,0.00,,---,0.00,VWS V14.01,2013-03-02 18:20:00,
2013-03-02 11:21:00,42.3,21.4,30.20,North,351,16.0,24.0,43,0.00,,---,0.00,VWS V14.01,2013-03-02 18:21:00,
2013-03-02 11:30:00,42.7,21.8,30.18,North,350,16.0,22.0,43,0.00,,---,0.00,VWS V14.01,2013-03-02 18:30:00,
2013-03-02 11:31:00,42.7,21.8,30.18,North,350,16.0,22.0,43,0.00,,---,0.00,VWS V14.01,2013-03-02 18:31:00,
2013-03-02 11:40:00,43.2,21.7,30.18,NNW,344,13.0,22.0,42,0.00,,---,0.00,VWS V14.01,2013-03-02 18:40:00,
2013-03-02 11:41:00,43.2,21.7,30.18,NNW,344,13.0,22.0,42,0.00,,---,0.00,VWS V14.01,2013-03-02 18:41:00,
2013-03-02 11:50:00,43.7,21.6,30.17,NNW,332,17.0,23.0,41,0.00,,---,0.00,VWS V14.01,2013-03-02 18:50:00,
2013-03-02 11:51:00,43.7,21.6,30.17,NNW,332,17.0,23.0,41,0.00,,---,0.00,VWS V14.01,2013-03-02 18:51:00,
2013-03-02 12:00:00,44.3,21.5,30.17,NW,321,15.0,22.0,40,0.00,,---,0.00,VWS V14.01,2013-03-02 19:00:00,
2013-03-02 12:01:00,44.3,21.5,30.17,NW,321,15.0,22.0,40,0.00,,---,0.00,VWS V14.01,2013-03-02 19:01:00,
2013-03-02 12:10:00,45.0,22.7,30.14,NNW,333,20.0,23.0,41,0.00,,---,0.00,VWS V14.01,2013-03-02 19:10:00,
2013-03-02 12:11:00,45.0,22.7,30.14,NNW,333,20.0,23.0,41,0.00,,---,0.00,VWS V14.01,2013-03-02 19:11:00,
2013-03-02 12:20:00,45.3,22.4,30.14,North,360,19.0,22.0,40,0.00,,---,0.00,VWS V14.01,2013-03-02 19:20:00,
2013-03-02 12:21:00,45.3,22.4,30.14,North,360,19.0,22.0,40,0.00,,---,0.00,VWS V14.01,2013-03-02 19:21:00,
2013-03-02 12:30:00,46.0,23.0,30.12,North,360,17.0,21.0,40,0.00,,---,0.00,VWS V14.01,2013-03-02 19:30:00,
2013-03-02 12:31:00,46.0,23.0,30.12,North,360,17.0,21.0,40,0.00,,---,0.00,VWS V14.01,2013-03-02 19:31:00,
2013-03-02 12:40:00,46.3,22.1,30.11,North,360,12.0,24.0,38,0.00,,---,0.00,VWS V14.01,2013-03-02 19:40:00,
2013-03-02 12:41:00,46.3,22.1,30.11,North,360,12.0,24.0,38,0.00,,---,0.00,VWS V14.01,2013-03-02 19:41:00,
2013-03-02 12:50:00,46.5,21.6,30.10,North,360,15.0,22.0,37,0.00,,---,0.00,VWS V14.01,2013-03-02 19:50:00,
2013-03-02 12:51:00,46.5,21.6,30.10,North,360,15.0,22.0,37,0.00,,---,0.00,VWS V14.01,2013-03-02 19:51:00,
2013-03-02 13:00:00,47.2,22.3,30.09,NNE,15,11.0,22.0,37,0.00,,---,0.00,VWS V14.01,2013-03-02 20:00:00,
2013-03-02 13:01:00,47.2,22.3,30.09,NNE,15,11.0,22.0,37,0.00,,---,0.00,VWS V14.01,2013-03-02 20:01:00,
2013-03-02 13:10:00,47.4,21.8,30.07,NNW,330,13.0,21.0,36,0.00,,---,0.00,VWS V14.01,2013-03-02 20:10:00,
2013-03-02 13:11:00,47.4,21.8,30.07,NNW,330,13.0,21.0,36,0.00,,---,0.00,VWS V14.01,2013-03-02 20:11:00,
2013-03-02 13:20:00,47.8,22.8,30.07,North,355,15.0,21.0,37,0.00,,---,0.00,VWS V14.01,2013-03-02 20:20:00,
2013-03-02 13:21:00,47.8,22.8,30.07,North,355,15.0,21.0,37,0.00,,---,0.00,VWS V14.01,2013-03-02 20:21:00,
2013-03-02 13:30:00,48.1,23.7,30.06,NNW,338,16.0,20.0,38,0.00,,---,0.00,VWS V14.01,2013-03-02 20:30:00,
2013-03-02 13:31:00,48.1,23.7,30.06,NNW,338,16.0,20.0,38,0.00,,---,0.00,VWS V14.01,2013-03-02 20:31:00,
2013-03-02 13:40:00,48.2,23.8,30.06,North,11,17.0,21.0,38,0.00,,---,0.00,VWS V14.01,2013-03-02 20:40:00,
2013-03-02 13:41:00,48.2,23.8,30.06,North,11,17.0,21.0,38,0.00,,---,0.00,VWS V14.01,2013-03-02 20:41:00,
2013-03-02 13:50:00,48.3,22.6,30.06,North,349,16.0,21.0,36,0.00,,---,0.00,VWS V14.01,2013-03-02 20:50:00,
2013-03-02 13:51:00,48.3,22.6,30.06,North,349,16.0,21.0,36,0.00,,---,0.00,VWS V14.01,2013-03-02 20:51:00,
2013-03-02 14:00:00,48.5,22.8,30.03,NNE,15,15.0,20.0,36,0.00,,---,0.00,VWS V14.01,2013-03-02 21:00:00,
2013-03-02 14:01:00,48.5,22.8,30.03,NNE,15,15.0,20.0,36,0.00,,---,0.00,VWS V14.01,2013-03-02 21:01:00,
2013-03-02 14:10:00,48.9,22.5,30.03,NNW,338,13.0,18.0,35,0.00,,---,0.00,VWS V14.01,2013-03-02 21:10:00,
2013-03-02 14:11:00,48.9,22.5,30.03,NNW,338,13.0,18.0,35,0.00,,---,0.00,VWS V14.01,2013-03-02 21:11:00,
2013-03-02 14:20:00,49.1,22.0,30.03,NNW,342,11.0,19.0,34,0.00,,---,0.00,VWS V14.01,2013-03-02 21:20:00,
2013-03-02 14:21:00,49.1,22.0,30.03,NNW,342,11.0,19.0,34,0.00,,---,0.00,VWS V14.01,2013-03-02 21:21:00,
2013-03-02 14:30:00,49.0,23.2,30.03,NNW,348,10.0,21.0,36,0.00,,---,0.00,VWS V14.01,2013-03-02 21:30:00,
2013-03-02 14:31:00,49.0,23.2,30.03,NNW,348,10.0,21.0,36,0.00,,---,0.00,VWS V14.01,2013-03-02 21:31:00,
2013-03-02 14:40:00,49.5,22.3,30.02,NNW,338,13.0,17.0,34,0.00,,---,0.00,VWS V14.01,2013-03-02 21:40:00,
2013-03-02 14:41:00,49.5,22.3,30.02,NNW,338,13.0,17.0,34,0.00,,---,0.00,VWS V14.01,2013-03-02 21:41:00,
2013-03-02 14:50:00,49.7,21.1,30.02,NNW,340,16.0,17.0,32,0.00,,---,0.00,VWS V14.01,2013-03-02 21:50:00,
2013-03-02 14:51:00,49.7,21.1,30.02,NNW,340,16.0,17.0,32,0.00,,---,0.00,VWS V14.01,2013-03-02 21:51:00,
2013-03-02 15:00:00,49.7,21.8,30.02,NNW,343,15.0,18.0,33,0.00,,---,0.00,VWS V14.01,2013-03-02 22:00:00,
2013-03-02 15:01:00,49.7,21.8,30.02,NNW,343,15.0,18.0,33,0.00,,---,0.00,VWS V14.01,2013-03-02 22:01:00,
2013-03-02 15:10:00,49.6,21.0,30.02,NNW,344,12.0,18.0,32,0.00,,---,0.00,VWS V14.01,2013-03-02 22:10:00,
2013-03-02 15:11:00,49.6,21.0,30.02,NNW,344,12.0,18.0,32,0.00,,---,0.00,VWS V14.01,2013-03-02 22:11:00,
2013-03-02 15:20:00,47.8,20.1,30.03,NNW,337,15.0,18.0,33,0.00,,---,0.00,VWS V14.01,2013-03-02 22:20:00,
2013-03-02 15:21:00,49.8,21.1,30.02,NNW,341,16.0,17.0,32,0.00,,---,0.00,VWS V14.01,2013-03-02 22:21:00,
2013-03-02 15:30:00,49.8,21.1,30.02,North,350,10.0,17.0,32,0.00,,---,0.00,VWS V14.01,2013-03-02 22:30:00,
2013-03-02 15:31:00,49.8,21.1,30.02,North,350,10.0,17.0,32,0.00,,---,0.00,VWS V14.01,2013-03-02 22:31:00,
2013-03-02 15:40:00,49.4,20.0,30.04,NNW,330,13.0,18.0,31,0.00,,---,0.00,VWS V14.01,2013-03-02 22:40:00,
2013-03-02 15:41:00,49.4,20.0,30.04,NNW,330,13.0,18.0,31,0.00,,---,0.00,VWS V14.01,2013-03-02 22:41:00,
2013-03-02 15:50:00,49.2,19.1,30.04,NNW,346,19.0,19.0,30,0.00,,---,0.00,VWS V14.01,2013-03-02 22:50:00,
2013-03-02 15:51:00,49.2,19.1,30.04,NNW,346,19.0,19.0,30,0.00,,---,0.00,VWS V14.01,2013-03-02 22:51:00,
2013-03-02 16:00:00,48.8,20.3,30.04,NNW,337,12.0,19.0,32,0.00,,---,0.00,VWS V14.01,2013-03-02 23:00:00,
2013-03-02 16:01:00,48.8,20.3,30.04,NNW,337,12.0,19.0,32,0.00,,---,0.00,VWS V14.01,2013-03-02 23:01:00,
2013-03-02 16:10:00,48.1,20.4,30.04,NNW,344,13.0,20.0,33,0.00,,---,0.00,VWS V14.01,2013-03-02 23:10:00,
2013-03-02 16:11:00,48.1,20.4,30.04,NNW,344,13.0,20.0,33,0.00,,---,0.00,VWS V14.01,2013-03-02 23:11:00,
2013-03-02 16:20:00,47.8,20.1,30.03,NNW,337,15.0,18.0,33,0.00,,---,0.00,VWS V14.01,2013-03-02 23:20:00,
2013-03-02 16:21:00,47.8,20.1,30.03,NNW,337,15.0,18.0,33,0.00,,---,0.00,VWS V14.01,2013-03-02 23:21:00,
2013-03-02 16:30:00,47.2,21.0,30.05,NNW,337,11.0,17.0,35,0.00,,---,0.00,VWS V14.01,2013-03-02 23:30:00,
2013-03-02 16:31:00,47.2,21.0,30.05,NNW,337,11.0,17.0,35,0.00,,---,0.00,VWS V14.01,2013-03-02 23:31:00,
2013-03-02 16:40:00,47.2,21.0,30.05,NNW,327,16.0,16.0,35,0.00,,---,0.00,VWS V14.01,2013-03-02 23:40:00,
2013-03-02 16:41:00,47.2,21.0,30.05,NNW,327,16.0,16.0,35,0.00,,---,0.00,VWS V14.01,2013-03-02 23:41:00,
2013-03-02 16:50:00,46.7,20.5,30.05,NNW,345,10.0,16.0,35,0.00,,---,0.00,VWS V14.01,2013-03-02 23:50:00,
2013-03-02 16:51:00,46.7,20.5,30.05,NNW,345,10.0,16.0,35,0.00,,---,0.00,VWS V14.01,2013-03-02 23:51:00,
2013-03-02 17:00:00,46.6,20.4,30.05,NNW,342,12.0,17.0,35,0.00,,---,0.00,VWS V14.01,2013-03-03 00:00:00,
2013-03-02 17:01:00,46.6,20.4,30.05,NNW,342,12.0,17.0,35,0.00,,---,0.00,VWS V14.01,2013-03-03 00:01:00,
2013-03-02 17:10:00,46.1,20.0,30.08,NNW,337,10.0,16.0,35,0.00,,---,0.00,VWS V14.01,2013-03-03 00:10:00,
2013-03-02 17:11:00,46.1,20.0,30.08,NNW,337,10.0,16.0,35,0.00,,---,0.00,VWS V14.01,2013-03-03 00:11:00,
2013-03-02 17:20:00,44.5,19.9,30.10,NNW,345,13.0,19.0,37,0.00,,---,0.00,VWS V14.01,2013-03-03 00:20:00,
2013-03-02 17:21:00,44.5,19.9,30.10,NNW,345,13.0,19.0,37,0.00,,---,0.00,VWS V14.01,2013-03-03 00:21:00,
2013-03-02 17:30:00,42.1,17.1,30.12,NW,315,9.0,13.0,36,0.00,,---,0.00,VWS V14.01,2013-03-03 00:30:00,
2013-03-02 17:31:00,43.7,20.4,30.10,NNW,340,8.0,16.0,39,0.00,,---,0.00,VWS V14.01,2013-03-03 00:31:00,
2013-03-02 17:40:00,43.0,20.4,30.12,NW,314,11.0,16.0,40,0.00,,---,0.00,VWS V14.01,2013-03-03 00:40:00,
2013-03-02 17:41:00,43.0,20.4,30.12,NW,314,11.0,16.0,40,0.00,,---,0.00,VWS V14.01,2013-03-03 00:41:00,
2013-03-02 17:50:00,42.6,17.5,30.11,NNW,343,12.0,16.0,36,0.00,,---,0.00,VWS V14.01,2013-03-03 00:50:00,
2013-03-02 17:51:00,44.1,18.9,30.10,NNW,331,5.0,16.0,36,0.00,,---,0.00,VWS V14.01,2013-03-03 00:51:00,
2013-03-02 18:00:00,44.1,18.9,30.10,NW,323,6.0,18.0,36,0.00,,---,0.00,VWS V14.01,2013-03-03 01:00:00,
2013-03-02 18:01:00,44.1,18.9,30.10,NW,323,6.0,18.0,36,0.00,,---,0.00,VWS V14.01,2013-03-03 01:01:00,
2013-03-02 18:10:00,42.7,18.9,30.10,NW,316,6.0,14.0,38,0.00,,---,0.00,VWS V14.01,2013-03-03 01:10:00,
2013-03-02 18:11:00,42.7,18.9,30.10,NW,316,6.0,14.0,38,0.00,,---,0.00,VWS V14.01,2013-03-03 01:11:00,
2013-03-02 18:20:00,42.2,18.4,30.12,NW,314,13.0,13.0,38,0.00,,---,0.00,VWS V14.01,2013-03-03 01:20:00,
2013-03-02 18:21:00,42.2,18.4,30.12,NW,314,13.0,13.0,38,0.00,,---,0.00,VWS V14.01,2013-03-03 01:21:00,
2013-03-02 18:30:00,41.6,17.9,30.09,NNW,331,16.0,19.0,38,0.00,,---,0.00,VWS V14.01,2013-03-03 01:30:00,
2013-03-02 18:31:00,42.1,17.1,30.12,NW,315,9.0,13.0,36,0.00,,---,0.00,VWS V14.01,2013-03-03 01:31:00,
2013-03-02 18:40:00,42.5,17.4,30.10,NNW,340,10.0,16.0,36,0.00,,---,0.00,VWS V14.01,2013-03-03 01:40:00,
2013-03-02 18:41:00,42.5,17.4,30.10,NNW,340,10.0,16.0,36,0.00,,---,0.00,VWS V14.01,2013-03-03 01:41:00,
2013-03-02 18:50:00,42.6,17.5,30.11,NNW,343,12.0,16.0,36,0.00,,---,0.00,VWS V14.01,2013-03-03 01:50:00,
2013-03-02 18:51:00,42.6,17.5,30.11,NNW,343,12.0,16.0,36,0.00,,---,0.00,VWS V14.01,2013-03-03 01:51:00,
2013-03-02 19:00:00,42.4,16.7,30.11,NNW,336,0.0,12.0,35,0.00,,---,0.00,VWS V14.01,2013-03-03 02:00:00,
2013-03-02 19:01:00,42.4,16.7,30.11,NNW,336,0.0,12.0,35,0.00,,---,0.00,VWS V14.01,2013-03-03 02:01:00,
2013-03-02 19:10:00,41.1,17.4,30.09,WNW,300,5.0,13.0,38,0.00,,---,0.00,VWS V14.01,2013-03-03 02:10:00,
2013-03-02 19:11:00,41.1,17.4,30.09,WNW,300,5.0,13.0,38,0.00,,---,0.00,VWS V14.01,2013-03-03 02:11:00,
2013-03-02 19:20:00,41.3,17.6,30.10,NW,318,7.0,16.0,38,0.00,,---,0.00,VWS V14.01,2013-03-03 02:20:00,
2013-03-02 19:21:00,41.3,17.6,30.10,NW,318,7.0,16.0,38,0.00,,---,0.00,VWS V14.01,2013-03-03 02:21:00,
2013-03-02 19:30:00,41.6,17.9,30.09,NNW,331,16.0,19.0,38,0.00,,---,0.00,VWS V14.01,2013-03-03 02:30:00,
2013-03-02 19:31:00,41.6,17.9,30.09,NNW,331,16.0,19.0,38,0.00,,---,0.00,VWS V14.01,2013-03-03 02:31:00,
2013-03-02 19:40:00,42.5,17.4,30.07,NW,310,11.0,18.0,36,0.00,,---,0.00,VWS V14.01,2013-03-03 02:40:00,
2013-03-02 19:41:00,42.5,17.4,30.07,NW,310,11.0,18.0,36,0.00,,---,0.00,VWS V14.01,2013-03-03 02:41:00,
2013-03-02 19:50:00,42.7,17.6,30.08,NW,316,10.0,19.0,36,0.00,,---,0.00,VWS V14.01,2013-03-03 02:50:00,
2013-03-02 19:51:00,42.7,17.6,30.08,NW,316,10.0,19.0,36,0.00,,---,0.00,VWS V14.01,2013-03-03 02:51:00,
2013-03-02 20:00:00,42.7,17.0,30.07,WNW,290,0.0,13.0,35,0.00,,---,0.00,VWS V14.01,2013-03-03 03:00:00,
2013-03-02 20:01:00,42.7,17.0,30.07,WNW,290,0.0,13.0,35,0.00,,---,0.00,VWS V14.01,2013-03-03 03:01:00,
2013-03-02 20:10:00,41.6,16.6,30.06,WNW,290,0.0,0.0,36,0.00,,---,0.00,VWS V14.01,2013-03-03 03:10:00,
2013-03-02 20:11:00,41.6,16.6,30.06,WNW,290,0.0,0.0,36,0.00,,---,0.00,VWS V14.01,2013-03-03 03:11:00,
2013-03-02 20:20:00,40.5,16.3,30.08,WNW,290,0.0,0.0,37,0.00,,---,0.00,VWS V14.01,2013-03-03 03:20:00,
2013-03-02 20:21:00,40.5,16.3,30.08,WNW,290,0.0,0.0,37,0.00,,---,0.00,VWS V14.01,2013-03-03 03:21:00,
2013-03-02 20:30:00,40.0,16.5,30.08,WNW,290,0.0,3.0,38,0.00,,---,0.00,VWS V14.01,2013-03-03 03:30:00,
2013-03-02 20:31:00,40.0,16.5,30.08,WNW,290,0.0,3.0,38,0.00,,---,0.00,VWS V14.01,2013-03-03 03:31:00,
2013-03-02 20:40:00,38.2,17.1,30.09,WNW,290,0.0,0.0,42,0.00,,---,0.00,VWS V14.01,2013-03-03 03:40:00,
2013-03-02 20:41:00,38.2,17.1,30.09,WNW,290,0.0,0.0,42,0.00,,---,0.00,VWS V14.01,2013-03-03 03:41:00,
2013-03-02 20:50:00,36.8,17.0,30.11,WNW,290,0.0,0.0,44,0.00,,---,0.00,VWS V14.01,2013-03-03 03:50:00,
2013-03-02 20:51:00,36.8,17.0,30.11,WNW,290,0.0,0.0,44,0.00,,---,0.00,VWS V14.01,2013-03-03 03:51:00,
2013-03-02 21:00:00,35.0,17.3,30.12,WNW,290,0.0,0.0,48,0.00,,---,0.00,VWS V14.01,2013-03-03 04:00:00,
2013-03-02 21:01:00,35.0,17.3,30.12,WNW,290,0.0,0.0,48,0.00,,---,0.00,VWS V14.01,2013-03-03 04:01:00,
2013-03-02 21:10:00,35.3,17.1,30.08,WNW,290,0.0,0.0,47,0.00,,---,0.00,VWS V14.01,2013-03-03 04:10:00,
2013-03-02 21:11:00,35.3,17.1,30.08,WNW,290,0.0,0.0,47,0.00,,---,0.00,VWS V14.01,2013-03-03 04:11:00,
2013-03-02 21:20:00,34.7,17.0,30.08,WNW,290,0.0,0.0,48,0.00,,---,0.00,VWS V14.01,2013-03-03 04:20:00,
2013-03-02 21:21:00,34.7,17.0,30.08,WNW,290,0.0,0.0,48,0.00,,---,0.00,VWS V14.01,2013-03-03 04:21:00,
2013-03-02 21:30:00,34.4,17.2,30.08,WNW,290,0.0,0.0,49,0.00,,---,0.00,VWS V14.01,2013-03-03 04:30:00,
2013-03-02 21:31:00,34.4,17.2,30.08,WNW,290,0.0,0.0,49,0.00,,---,0.00,VWS V14.01,2013-03-03 04:31:00,
2013-03-02 21:40:00,34.4,16.8,30.07,WNW,290,0.0,0.0,48,0.00,,---,0.00,VWS V14.01,2013-03-03 04:40:00,
2013-03-02 21:41:00,34.4,16.8,30.07,WNW,290,0.0,0.0,48,0.00,,---,0.00,VWS V14.01,2013-03-03 04:41:00,
2013-03-02 21:50:00,32.4,17.6,30.08,WNW,291,0.0,3.0,54,0.00,,---,0.00,VWS V14.01,2013-03-03 04:50:00,
2013-03-02 21:51:00,32.4,17.6,30.08,WNW,291,0.0,3.0,54,0.00,,---,0.00,VWS V14.01,2013-03-03 04:51:00,
2013-03-02 22:00:00,33.0,17.3,30.09,WNW,294,4.0,11.0,52,0.00,,---,0.00,VWS V14.01,2013-03-03 05:00:00,
2013-03-02 22:01:00,33.0,17.3,30.09,WNW,294,4.0,11.0,52,0.00,,---,0.00,VWS V14.01,2013-03-03 05:01:00,
2013-03-02 22:10:00,32.7,17.0,30.01,North,349,0.0,12.0,52,0.00,,---,0.00,VWS V14.01,2013-03-03 05:10:00,
2013-03-02 22:20:00,31.6,16.9,30.00,North,350,0.0,7.0,54,0.00,,---,0.00,VWS V14.01,2013-03-03 05:20:00,
2013-03-02 22:21:00,33.6,16.5,30.02,NNE,22,0.0,2.0,49,0.00,,---,0.00,VWS V14.01,2013-03-03 05:21:00,
2013-03-02 22:30:00,32.7,17.0,29.99,ENE,68,0.0,8.0,52,0.00,,---,0.00,VWS V14.01,2013-03-03 05:30:00,
2013-03-02 22:31:00,32.6,17.4,30.03,North,360,6.0,13.0,53,0.00,,---,0.00,VWS V14.01,2013-03-03 05:31:00,
2013-03-02 22:40:00,32.4,16.8,29.99,NNW,346,7.0,10.0,52,0.00,,---,0.00,VWS V14.01,2013-03-03 05:40:00,
2013-03-02 22:41:00,33.4,16.8,30.03,NNW,346,1.0,12.0,50,0.00,,---,0.00,VWS V14.01,2013-03-03 05:41:00,
2013-03-02 22:50:00,31.2,16.9,29.99,NNW,338,0.0,9.0,55,0.00,,---,0.00,VWS V14.01,2013-03-03 05:50:00,
2013-03-02 22:51:00,32.1,17.3,30.03,NNE,15,13.0,14.0,54,0.00,,---,0.00,VWS V14.01,2013-03-03 05:51:00,
2013-03-02 23:00:00,29.6,16.6,30.00,NNW,339,0.0,1.0,58,0.00,,---,0.00,VWS V14.01,2013-03-03 06:00:00,
2013-03-02 23:01:00,32.2,17.4,30.03,NNE,31,0.0,16.0,54,0.00,,---,0.00,VWS V14.01,2013-03-03 06:01:00,
2013-03-02 23:10:00,29.5,17.0,29.97,NW,326,6.0,10.0,59,0.00,,---,0.00,VWS V14.01,2013-03-03 06:10:00,
2013-03-02 23:11:00,32.7,17.0,30.01,North,349,0.0,12.0,52,0.00,,---,0.00,VWS V14.01,2013-03-03 06:11:00,
2013-03-02 23:20:00,29.3,16.8,29.97,NNW,327,1.0,7.0,59,0.00,,---,0.00,VWS V14.01,2013-03-03 06:20:00,
2013-03-02 23:21:00,31.6,16.9,30.00,North,350,0.0,7.0,54,0.00,,---,0.00,VWS V14.01,2013-03-03 06:21:00,
2013-03-02 23:30:00,30.0,16.6,29.97,NNW,327,0.0,6.0,57,0.00,,---,0.00,VWS V14.01,2013-03-03 06:30:00,
2013-03-02 23:31:00,32.7,17.0,29.99,ENE,68,0.0,8.0,52,0.00,,---,0.00,VWS V14.01,2013-03-03 06:31:00,
2013-03-02 23:40:00,30.6,16.4,29.94,NNW,327,6.0,8.0,55,0.00,,---,0.00,VWS V14.01,2013-03-03 06:40:00,
2013-03-02 23:41:00,32.4,16.8,29.99,NNW,346,7.0,10.0,52,0.00,,---,0.00,VWS V14.01,2013-03-03 06:41:00,
2013-03-02 23:50:00,30.2,16.8,29.95,NNW,327,0.0,10.0,57,0.00,,---,0.00,VWS V14.01,2013-03-03 06:50:00,
2013-03-02 23:51:00,31.2,16.9,29.99,NNW,338,0.0,9.0,55,0.00,,---,0.00,VWS V14.01,2013-03-03 06:51:00,